createdAt,value
2017-09-17T00:00:42.578Z,4.90
2017-09-17T00:01:42.591Z,4.50
2017-09-17T00:02:42.610Z,4.50
2017-09-17T00:03:42.630Z,13.10
2017-09-17T00:04:42.649Z,4.00
2017-09-17T00:05:42.686Z,6.20
2017-09-17T00:06:42.679Z,7.50
2017-09-17T00:07:42.698Z,6.80
2017-09-17T00:08:42.723Z,3.80
2017-09-17T00:09:42.748Z,6.00
2017-09-17T00:10:42.753Z,6.40
2017-09-17T00:11:42.765Z,6.40
2017-09-17T00:12:42.785Z,6.20
2017-09-17T00:13:42.808Z,7.30
2017-09-17T00:14:42.833Z,4.20
2017-09-17T00:15:42.845Z,4.50
2017-09-17T00:16:42.857Z,3.40
2017-09-17T00:17:42.881Z,4.20
2017-09-17T00:18:42.895Z,4.30
2017-09-17T00:19:42.930Z,4.50
2017-09-17T00:20:42.936Z,4.00
2017-09-17T00:21:42.954Z,3.40
2017-09-17T00:22:42.959Z,5.30
2017-09-17T00:23:42.978Z,3.50
2017-09-17T00:24:43.001Z,6.50
2017-09-17T00:25:43.016Z,4.10
2017-09-17T00:26:43.034Z,4.20
2017-09-17T00:27:43.054Z,6.10
2017-09-17T00:28:43.065Z,4.30
2017-09-17T00:29:43.085Z,4.60
2017-09-17T00:30:43.102Z,4.40
2017-09-17T00:31:43.124Z,6.20
2017-09-17T00:32:43.138Z,6.90
2017-09-17T00:33:43.154Z,4.10
2017-09-17T00:34:43.171Z,6.10
2017-09-17T00:35:43.191Z,4.10
2017-09-17T00:36:43.207Z,4.00
2017-09-17T00:37:43.226Z,5.00
2017-09-17T00:38:43.245Z,4.40
2017-09-17T00:39:43.267Z,5.10
2017-09-17T00:40:43.395Z,4.80
2017-09-17T00:41:43.294Z,5.30
2017-09-17T00:42:43.311Z,4.90
2017-09-17T00:43:43.334Z,3.20
2017-09-17T00:44:43.347Z,4.80
2017-09-17T00:45:43.363Z,3.90
2017-09-17T00:46:43.386Z,4.30
2017-09-17T00:47:43.402Z,6.00
2017-09-17T00:48:43.421Z,4.60
2017-09-17T00:49:43.447Z,4.90
2017-09-17T00:50:43.583Z,6.70
2017-09-17T00:51:43.475Z,7.60
2017-09-17T00:52:43.493Z,10.40
2017-09-17T00:53:43.510Z,8.70
2017-09-17T00:54:43.528Z,10.40
2017-09-17T00:55:43.543Z,8.90
2017-09-17T00:56:43.575Z,17.80
2017-09-17T00:57:43.579Z,17.30
2017-09-17T00:58:43.612Z,19.20
2017-09-17T00:59:43.615Z,43.10
2017-09-17T01:00:43.640Z,70.80
2017-09-17T01:01:43.652Z,130.20
2017-09-17T01:02:43.672Z,96.90
2017-09-17T01:03:43.690Z,84.30
2017-09-17T01:04:43.708Z,30.20
2017-09-17T01:05:43.719Z,7.30
2017-09-17T01:06:43.741Z,17.90
2017-09-17T01:07:43.763Z,49.30
2017-09-17T01:08:43.777Z,37.50
2017-09-17T01:09:43.792Z,115.10
2017-09-17T01:10:43.817Z,132.10
2017-09-17T01:11:43.828Z,75.20
2017-09-17T01:12:43.844Z,139.80
2017-09-17T01:13:43.862Z,180.00
2017-09-17T01:14:43.881Z,136.90
2017-09-17T01:15:43.900Z,157.80
2017-09-17T01:16:43.918Z,182.50
2017-09-17T01:17:43.930Z,144.00
2017-09-17T01:18:43.959Z,126.70
2017-09-17T01:19:43.971Z,177.60
2017-09-17T01:20:43.987Z,132.90
2017-09-17T01:21:44.004Z,64.80
2017-09-17T01:22:44.022Z,83.30
2017-09-17T01:23:44.039Z,130.70
2017-09-17T01:24:44.055Z,94.40
2017-09-17T01:25:44.073Z,88.00
2017-09-17T01:26:44.092Z,108.30
2017-09-17T01:27:44.115Z,180.10
2017-09-17T01:28:44.126Z,84.20
2017-09-17T01:29:44.144Z,96.50
2017-09-17T01:30:44.161Z,121.20
2017-09-17T01:31:44.184Z,122.30
2017-09-17T01:32:44.198Z,74.20
2017-09-17T01:33:44.220Z,99.90
2017-09-17T01:34:44.232Z,55.00
2017-09-17T01:35:44.255Z,37.40
2017-09-17T01:36:44.269Z,85.20
2017-09-17T01:37:44.286Z,98.10
2017-09-17T01:38:44.304Z,122.50
2017-09-17T01:39:44.330Z,66.90
2017-09-17T01:40:44.342Z,119.90
2017-09-17T01:41:44.356Z,196.30
2017-09-17T01:42:44.372Z,192.20
2017-09-17T01:43:44.391Z,163.30
2017-09-17T01:44:44.408Z,128.40
2017-09-17T01:45:44.442Z,202.40
2017-09-17T01:46:44.445Z,281.20
2017-09-17T01:47:44.462Z,358.10
2017-09-17T01:48:44.483Z,444.50
2017-09-17T01:49:44.500Z,493.30
2017-09-17T01:50:44.517Z,462.50
2017-09-17T01:51:44.536Z,339.50
2017-09-17T01:52:44.559Z,406.50
2017-09-17T01:53:44.571Z,392.60
2017-09-17T01:54:44.593Z,259.10
2017-09-17T01:55:44.612Z,300.90
2017-09-17T01:56:44.625Z,329.70
2017-09-17T01:57:44.645Z,477.90
2017-09-17T01:58:44.659Z,302.10
2017-09-17T01:59:44.679Z,335.70
2017-09-17T02:00:44.694Z,370.10
2017-09-17T02:01:44.715Z,440.80
2017-09-17T02:02:44.732Z,504.40
2017-09-17T02:03:44.748Z,433.50
2017-09-17T02:04:44.765Z,452.20
2017-09-17T02:05:44.783Z,424.90
2017-09-17T02:06:44.804Z,401.40
2017-09-17T02:07:44.822Z,252.30
2017-09-17T02:08:44.842Z,292.50
2017-09-17T02:09:44.854Z,177.70
2017-09-17T02:10:44.879Z,229.70
2017-09-17T02:11:44.900Z,331.90
2017-09-17T02:12:44.913Z,328.70
2017-09-17T02:13:44.933Z,297.50
2017-09-17T02:14:44.945Z,335.40
2017-09-17T02:15:44.965Z,329.20
2017-09-17T02:16:44.989Z,413.70
2017-09-17T02:17:44.996Z,519.30
2017-09-17T02:18:45.021Z,452.00
2017-09-17T02:19:45.043Z,620.60
2017-09-17T02:20:45.059Z,444.40
2017-09-17T02:21:45.084Z,298.20
2017-09-17T02:22:45.095Z,198.30
2017-09-17T02:23:45.105Z,231.60
2017-09-17T02:24:45.125Z,345.10
2017-09-17T02:25:45.142Z,311.10
2017-09-17T02:26:45.160Z,401.10
2017-09-17T02:27:45.183Z,363.60
2017-09-17T02:28:45.197Z,425.70
2017-09-17T02:29:45.217Z,382.80
2017-09-17T02:30:45.238Z,382.60
2017-09-17T02:31:45.251Z,356.30
2017-09-17T02:32:45.269Z,262.50
2017-09-17T02:33:45.285Z,147.50
2017-09-17T02:34:45.303Z,296.90
2017-09-17T02:35:45.325Z,229.20
2017-09-17T02:36:45.338Z,198.30
2017-09-17T02:37:45.359Z,340.00
2017-09-17T02:38:45.380Z,313.00
2017-09-17T02:39:45.396Z,338.90
2017-09-17T02:40:45.410Z,336.50
2017-09-17T02:41:45.433Z,316.40
2017-09-17T02:42:45.448Z,325.80
2017-09-17T02:43:45.466Z,190.70
2017-09-17T02:44:45.482Z,98.00
2017-09-17T02:45:45.501Z,143.10
2017-09-17T02:46:45.520Z,155.10
2017-09-17T02:47:45.543Z,145.90
2017-09-17T02:48:45.556Z,186.60
2017-09-17T02:49:45.580Z,130.40
2017-09-17T02:50:45.597Z,123.20
2017-09-17T02:51:45.616Z,116.70
2017-09-17T02:52:45.625Z,146.50
2017-09-17T02:53:45.644Z,123.80
2017-09-17T02:54:45.665Z,101.60
2017-09-17T02:55:45.681Z,131.00
2017-09-17T02:56:45.698Z,126.20
2017-09-17T02:57:45.715Z,87.20
2017-09-17T02:58:45.732Z,108.30
2017-09-17T02:59:45.753Z,76.40
2017-09-17T03:00:45.772Z,105.90
2017-09-17T03:01:45.785Z,64.20
2017-09-17T03:02:45.803Z,69.50
2017-09-17T03:03:45.824Z,61.40
2017-09-17T03:04:45.842Z,73.10
2017-09-17T03:05:45.858Z,86.10
2017-09-17T03:06:45.875Z,78.00
2017-09-17T03:07:45.897Z,58.00
2017-09-17T03:08:45.914Z,88.40
2017-09-17T03:09:45.937Z,44.20
2017-09-17T03:10:45.950Z,33.50
2017-09-17T03:11:45.971Z,41.10
2017-09-17T03:12:45.996Z,40.90
2017-09-17T03:13:46.008Z,44.00
2017-09-17T03:14:46.024Z,52.30
2017-09-17T03:15:46.047Z,33.50
2017-09-17T03:16:46.054Z,38.90
2017-09-17T03:17:46.070Z,78.20
2017-09-17T03:18:46.091Z,22.10
2017-09-17T03:19:46.106Z,13.50
2017-09-17T03:20:46.126Z,7.00
2017-09-17T03:21:46.145Z,8.10
2017-09-17T03:22:46.160Z,5.00
2017-09-17T03:23:46.189Z,6.90
2017-09-17T03:24:46.210Z,19.10
2017-09-17T03:25:46.214Z,10.00
2017-09-17T03:26:46.230Z,3.90
2017-09-17T03:27:46.247Z,4.40
2017-09-17T03:28:46.276Z,5.00
2017-09-17T03:29:46.283Z,5.70
2017-09-17T03:30:46.308Z,4.90
2017-09-17T03:31:46.317Z,9.30
2017-09-17T03:32:46.345Z,16.00
2017-09-17T03:33:46.352Z,52.70
2017-09-17T03:34:46.371Z,82.80
2017-09-17T03:35:46.391Z,108.20
2017-09-17T03:36:46.422Z,86.50
2017-09-17T03:37:46.426Z,113.20
2017-09-17T03:38:46.450Z,67.30
2017-09-17T03:39:46.463Z,46.30
2017-09-17T03:40:46.479Z,55.50
2017-09-17T03:41:46.509Z,22.10
2017-09-17T03:42:46.531Z,11.50
2017-09-17T03:43:46.534Z,16.80
2017-09-17T03:44:46.547Z,10.90
2017-09-17T03:45:46.567Z,12.30
2017-09-17T03:46:46.582Z,12.90
2017-09-17T03:47:46.602Z,12.40
2017-09-17T03:48:46.621Z,6.10
2017-09-17T03:49:46.636Z,7.50
2017-09-17T03:50:46.657Z,13.20
2017-09-17T03:51:46.668Z,7.20
2017-09-17T03:52:46.695Z,10.10
2017-09-17T03:53:46.703Z,5.90
2017-09-17T03:54:46.722Z,5.60
2017-09-17T03:55:46.746Z,10.50
2017-09-17T03:56:46.762Z,7.50
2017-09-17T03:57:46.783Z,13.20
2017-09-17T03:58:46.808Z,6.40
2017-09-17T03:59:46.816Z,10.10
2017-09-17T04:00:46.837Z,6.90
2017-09-17T04:01:46.856Z,6.90
2017-09-17T04:02:46.868Z,5.50
2017-09-17T04:03:46.883Z,4.30
2017-09-17T04:04:46.900Z,4.90
2017-09-17T04:05:46.924Z,4.90
2017-09-17T04:06:46.936Z,6.40
2017-09-17T04:07:46.960Z,7.50
2017-09-17T04:08:46.974Z,6.10
2017-09-17T04:09:46.987Z,6.10
2017-09-17T04:10:47.006Z,7.90
2017-09-17T04:11:47.022Z,5.20
2017-09-17T04:12:47.053Z,6.30
2017-09-17T04:13:47.057Z,4.50
2017-09-17T04:14:47.081Z,4.60
2017-09-17T04:15:47.096Z,4.10
2017-09-17T04:16:47.109Z,4.10
2017-09-17T04:17:47.128Z,4.20
2017-09-17T04:18:47.146Z,4.10
2017-09-17T04:19:47.172Z,3.60
2017-09-17T04:20:47.186Z,3.90
2017-09-17T04:21:47.196Z,4.50
2017-09-17T04:22:47.219Z,4.40
2017-09-17T04:23:47.242Z,4.90
2017-09-17T04:24:47.251Z,4.80
2017-09-17T04:25:47.266Z,4.20
2017-09-17T04:26:47.290Z,4.80
2017-09-17T04:27:47.303Z,6.20
2017-09-17T04:28:47.321Z,7.10
2017-09-17T04:29:47.343Z,5.70
2017-09-17T04:30:47.363Z,4.00
2017-09-17T04:31:47.378Z,4.90
2017-09-17T04:32:47.397Z,4.70
2017-09-17T04:33:47.420Z,5.00
2017-09-17T04:34:47.427Z,5.10
2017-09-17T04:35:47.448Z,4.80
2017-09-17T04:36:47.468Z,4.90
2017-09-17T04:37:47.481Z,4.10
2017-09-17T04:38:47.504Z,4.40
2017-09-17T04:39:47.516Z,4.40
2017-09-17T04:40:47.537Z,4.50
2017-09-17T04:41:47.552Z,4.20
2017-09-17T04:42:47.573Z,4.10
2017-09-17T04:43:47.589Z,3.70
2017-09-17T04:44:47.606Z,3.80
2017-09-17T04:45:47.625Z,3.70
2017-09-17T04:46:47.645Z,4.40
2017-09-17T04:47:47.662Z,4.20
2017-09-17T04:48:47.691Z,4.50
2017-09-17T04:49:47.708Z,4.80
2017-09-17T04:50:47.735Z,5.00
2017-09-17T04:51:47.771Z,6.70
2017-09-17T04:52:47.750Z,9.60
2017-09-17T04:53:47.766Z,7.20
2017-09-17T04:54:47.786Z,6.90
2017-09-17T04:55:47.807Z,6.00
2017-09-17T04:56:47.853Z,7.00
2017-09-17T04:57:47.879Z,7.10
2017-09-17T04:58:47.863Z,6.40
2017-09-17T04:59:47.877Z,8.40
2017-09-17T05:00:47.918Z,6.80
2017-09-17T05:01:47.933Z,10.50
2017-09-17T05:02:47.932Z,8.50
2017-09-17T05:03:47.954Z,7.60
2017-09-17T05:04:48.003Z,7.50
2017-09-17T05:05:47.987Z,9.70
2017-09-17T05:06:48.006Z,7.40
2017-09-17T05:07:48.121Z,9.20
2017-09-17T05:08:48.056Z,7.80
2017-09-17T05:09:48.080Z,9.60
2017-09-17T05:10:48.072Z,11.70
2017-09-17T05:11:48.090Z,6.10
2017-09-17T05:12:48.109Z,6.80
2017-09-17T05:13:48.163Z,6.50
2017-09-17T05:14:48.146Z,6.70
2017-09-17T05:15:48.168Z,7.20
2017-09-17T05:16:48.218Z,7.30
2017-09-17T05:17:48.195Z,11.00
2017-09-17T05:18:48.215Z,10.30
2017-09-17T05:19:48.230Z,8.70
2017-09-17T05:20:48.249Z,7.90
2017-09-17T05:21:48.269Z,7.10
2017-09-17T05:22:48.281Z,11.50
2017-09-17T05:23:48.316Z,6.40
2017-09-17T05:24:48.340Z,6.90
2017-09-17T05:25:48.342Z,7.50
2017-09-17T05:26:48.362Z,6.90
2017-09-17T05:27:48.380Z,6.90
2017-09-17T05:28:48.404Z,8.40
2017-09-17T05:29:48.416Z,7.00
2017-09-17T05:30:48.434Z,7.00
2017-09-17T05:31:48.470Z,7.60
2017-09-17T05:32:48.549Z,6.50
2017-09-17T05:33:48.481Z,8.80
2017-09-17T05:34:48.501Z,7.40
2017-09-17T05:35:48.521Z,8.70
2017-09-17T05:36:48.535Z,6.20
2017-09-17T05:37:48.599Z,6.50
2017-09-17T05:38:48.598Z,9.60
2017-09-17T05:39:48.629Z,10.40
2017-09-17T05:40:48.607Z,7.90
2017-09-17T05:41:48.633Z,9.40
2017-09-17T05:42:48.641Z,10.10
2017-09-17T05:43:48.671Z,8.30
2017-09-17T05:44:48.681Z,6.20
2017-09-17T05:45:48.693Z,8.30
2017-09-17T05:46:48.717Z,6.40
2017-09-17T05:47:48.734Z,6.60
2017-09-17T05:48:48.748Z,8.60
2017-09-17T05:49:48.772Z,8.00
2017-09-17T05:50:48.804Z,5.70
2017-09-17T05:51:48.808Z,7.90
2017-09-17T05:52:48.833Z,7.30
2017-09-17T05:53:48.841Z,6.60
2017-09-17T05:54:48.866Z,7.90
2017-09-17T05:55:48.877Z,10.20
2017-09-17T05:56:48.897Z,8.50
2017-09-17T05:57:48.915Z,7.50
2017-09-17T05:58:48.934Z,8.50
2017-09-17T05:59:48.954Z,7.50
2017-09-17T06:00:48.977Z,10.70
2017-09-17T06:01:48.989Z,9.40
2017-09-17T06:02:49.015Z,7.40
2017-09-17T06:03:49.021Z,8.60
2017-09-17T06:04:49.046Z,8.60
2017-09-17T06:05:49.073Z,10.60
2017-09-17T06:06:49.076Z,10.50
2017-09-17T06:07:49.101Z,9.80
2017-09-17T06:08:49.128Z,11.20
2017-09-17T06:09:49.135Z,7.40
2017-09-17T06:10:49.156Z,10.70
2017-09-17T06:11:49.168Z,10.50
2017-09-17T06:12:49.188Z,7.30
2017-09-17T06:13:49.203Z,7.60
2017-09-17T06:14:49.217Z,9.10
2017-09-17T06:15:49.240Z,7.60
2017-09-17T06:16:49.255Z,9.40
2017-09-17T06:17:49.278Z,9.40
2017-09-17T06:18:49.292Z,9.50
2017-09-17T06:19:49.313Z,6.40
2017-09-17T06:20:49.347Z,11.20
2017-09-17T06:21:49.346Z,6.40
2017-09-17T06:22:49.362Z,7.20
2017-09-17T06:23:49.388Z,7.30
2017-09-17T06:24:49.405Z,7.10
2017-09-17T06:25:49.424Z,7.00
2017-09-17T06:26:49.441Z,9.00
2017-09-17T06:27:49.457Z,9.70
2017-09-17T06:28:49.478Z,6.30
2017-09-17T06:29:49.501Z,6.80
2017-09-17T06:30:49.509Z,6.50
2017-09-17T06:31:49.528Z,10.60
2017-09-17T06:32:49.552Z,7.50
2017-09-17T06:33:49.568Z,7.20
2017-09-17T06:34:49.585Z,7.40
2017-09-17T06:35:49.681Z,8.60
2017-09-17T06:36:49.624Z,9.90
2017-09-17T06:37:49.636Z,8.10
2017-09-17T06:38:49.655Z,7.80
2017-09-17T06:39:49.674Z,7.10
2017-09-17T06:40:49.695Z,7.90
2017-09-17T06:41:49.707Z,8.90
2017-09-17T06:42:49.734Z,7.40
2017-09-17T06:43:49.742Z,9.70
2017-09-17T06:44:49.761Z,6.70
2017-09-17T06:45:49.781Z,6.50
2017-09-17T06:46:49.799Z,6.50
2017-09-17T06:47:49.829Z,9.40
2017-09-17T06:48:49.867Z,6.30
2017-09-17T06:49:49.858Z,7.90
2017-09-17T06:50:49.877Z,8.20
2017-09-17T06:51:49.920Z,6.50
2017-09-17T06:52:49.908Z,6.60
2017-09-17T06:53:49.941Z,8.50
2017-09-17T06:54:49.956Z,6.20
2017-09-17T06:55:49.977Z,6.20
2017-09-17T06:56:49.995Z,7.70
2017-09-17T06:57:50.005Z,6.90
2017-09-17T06:58:50.022Z,7.10
2017-09-17T06:59:50.037Z,7.00
2017-09-17T07:00:50.071Z,8.50
2017-09-17T07:01:50.077Z,11.80
2017-09-17T07:02:50.107Z,7.00
2017-09-17T07:03:50.114Z,7.00
2017-09-17T07:04:50.138Z,8.40
2017-09-17T07:05:50.150Z,6.80
2017-09-17T07:06:50.172Z,9.80
2017-09-17T07:07:50.194Z,6.40
2017-09-17T07:08:50.223Z,8.20
2017-09-17T07:09:50.232Z,9.00
2017-09-17T07:10:50.259Z,7.70
2017-09-17T07:11:50.276Z,6.80
2017-09-17T07:12:50.287Z,9.10
2017-09-17T07:13:50.316Z,6.70
2017-09-17T07:14:50.318Z,9.70
2017-09-17T07:15:50.343Z,7.10
2017-09-17T07:16:50.382Z,7.80
2017-09-17T07:17:50.391Z,8.80
2017-09-17T07:18:50.394Z,6.60
2017-09-17T07:19:50.415Z,6.30
2017-09-17T07:20:50.458Z,7.80
2017-09-17T07:21:50.459Z,6.70
2017-09-17T07:22:50.469Z,6.80
2017-09-17T07:23:50.493Z,6.10
2017-09-17T07:24:50.524Z,6.60
2017-09-17T07:25:50.533Z,9.10
2017-09-17T07:26:50.605Z,13.80
2017-09-17T07:27:50.572Z,10.10
2017-09-17T07:28:50.591Z,9.30
2017-09-17T07:29:50.606Z,9.30
2017-09-17T07:30:50.638Z,31.50
2017-09-17T07:31:50.646Z,13.40
2017-09-17T07:32:50.678Z,8.50
2017-09-17T07:33:50.687Z,9.10
2017-09-17T07:34:50.709Z,6.00
2017-09-17T07:35:50.732Z,5.90
2017-09-17T07:36:50.743Z,7.20
2017-09-17T07:37:50.773Z,8.00
2017-09-17T07:38:50.789Z,7.90
2017-09-17T07:39:50.810Z,6.90
2017-09-17T07:40:50.848Z,10.00
2017-09-17T07:41:50.845Z,9.20
2017-09-17T07:42:50.868Z,10.00
2017-09-17T07:43:50.900Z,7.90
2017-09-17T07:44:50.906Z,7.20
2017-09-17T07:45:50.937Z,8.20
2017-09-17T07:46:50.950Z,7.70
2017-09-17T07:47:50.969Z,7.80
2017-09-17T07:48:50.986Z,7.10
2017-09-17T07:49:51.015Z,6.60
2017-09-17T07:50:51.032Z,5.70
2017-09-17T07:51:51.056Z,6.20
2017-09-17T07:52:51.071Z,8.60
2017-09-17T07:53:51.088Z,8.40
2017-09-17T07:54:51.119Z,9.00
2017-09-17T07:55:51.132Z,17.70
2017-09-17T07:56:51.156Z,17.80
2017-09-17T07:57:51.180Z,17.20
2017-09-17T07:58:51.199Z,20.30
2017-09-17T07:59:51.217Z,33.10
2017-09-17T08:00:51.257Z,37.90
2017-09-17T08:01:51.264Z,36.00
2017-09-17T08:02:51.307Z,36.70
2017-09-17T08:03:51.313Z,33.60
2017-09-17T08:04:51.339Z,17.10
2017-09-17T08:05:51.360Z,10.90
2017-09-17T08:06:51.380Z,7.20
2017-09-17T08:07:51.407Z,6.80
2017-09-17T08:08:51.429Z,6.20
2017-09-17T08:09:51.475Z,6.20
2017-09-17T08:10:51.481Z,7.60
2017-09-17T08:11:51.503Z,6.00
2017-09-17T08:12:51.521Z,7.70
2017-09-17T08:13:51.548Z,7.70
2017-09-17T08:14:51.576Z,7.80
2017-09-17T08:15:51.593Z,7.20
2017-09-17T08:16:51.615Z,8.30
2017-09-17T08:17:51.649Z,6.80
2017-09-17T08:18:51.658Z,6.40
2017-09-17T08:19:51.681Z,7.70
2017-09-17T08:20:51.702Z,7.80
2017-09-17T08:21:51.730Z,6.90
2017-09-17T08:22:51.757Z,7.90
2017-09-17T08:23:51.772Z,6.80
2017-09-17T08:24:51.805Z,8.90
2017-09-17T08:25:51.815Z,9.70
2017-09-17T08:26:51.843Z,8.30
2017-09-17T08:27:51.860Z,9.60
2017-09-17T08:28:51.881Z,8.30
2017-09-17T08:29:51.921Z,8.50
2017-09-17T08:30:51.926Z,8.10
2017-09-17T08:31:51.950Z,10.50
2017-09-17T08:32:51.974Z,6.60
2017-09-17T08:33:51.989Z,6.30
2017-09-17T08:34:52.014Z,7.90
2017-09-17T08:35:52.039Z,9.00
2017-09-17T08:36:52.061Z,8.10
2017-09-17T08:37:52.084Z,7.30
2017-09-17T08:38:52.099Z,8.00
2017-09-17T08:39:52.125Z,8.50
2017-09-17T08:40:52.159Z,6.90
2017-09-17T08:41:52.163Z,10.80
2017-09-17T08:42:52.192Z,8.70
2017-09-17T08:43:52.212Z,9.30
2017-09-17T08:44:52.237Z,11.10
2017-09-17T08:45:52.257Z,8.90
2017-09-17T08:46:52.270Z,8.80
2017-09-17T08:47:52.295Z,8.90
2017-09-17T08:48:52.315Z,8.40
2017-09-17T08:49:52.334Z,6.70
2017-09-17T08:50:52.368Z,8.10
2017-09-17T08:51:52.384Z,7.50
2017-09-17T08:52:52.408Z,7.40
2017-09-17T08:53:52.422Z,9.20
2017-09-17T08:54:52.453Z,11.00
2017-09-17T08:55:52.476Z,8.30
2017-09-17T08:56:52.506Z,9.60
2017-09-17T08:57:52.515Z,8.70
2017-09-17T08:58:52.529Z,7.00
2017-09-17T08:59:52.553Z,7.80
2017-09-17T09:00:52.576Z,11.00
2017-09-17T09:01:52.602Z,8.40
2017-09-17T09:02:52.624Z,11.30
2017-09-17T09:03:52.639Z,9.40
2017-09-17T09:04:52.662Z,7.40
2017-09-17T09:05:52.679Z,7.80
2017-09-17T09:06:52.700Z,10.40
2017-09-17T09:07:52.725Z,9.40
2017-09-17T09:08:52.841Z,7.20
2017-09-17T09:09:52.809Z,8.90
2017-09-17T09:10:52.791Z,7.40
2017-09-17T09:11:52.816Z,7.70
2017-09-17T09:12:52.839Z,10.00
2017-09-17T09:13:52.855Z,8.00
2017-09-17T09:14:52.873Z,7.40
2017-09-17T09:15:52.899Z,6.60
2017-09-17T09:16:52.924Z,8.00
2017-09-17T09:17:52.940Z,7.90
2017-09-17T09:18:52.965Z,6.80
2017-09-17T09:19:52.990Z,6.90
2017-09-17T09:20:53.004Z,6.40
2017-09-17T09:21:53.027Z,8.30
2017-09-17T09:22:53.063Z,8.20
2017-09-17T09:23:53.076Z,7.90
2017-09-17T09:24:53.093Z,7.00
2017-09-17T09:25:53.116Z,7.00
2017-09-17T09:26:53.135Z,7.00
2017-09-17T09:27:53.155Z,9.10
2017-09-17T09:28:53.194Z,6.80
2017-09-17T09:29:53.201Z,8.30
2017-09-17T09:30:53.220Z,6.10
2017-09-17T09:31:53.245Z,8.80
2017-09-17T09:32:53.267Z,6.10
2017-09-17T09:33:53.292Z,6.60
2017-09-17T09:34:53.312Z,6.00
2017-09-17T09:35:53.332Z,7.00
2017-09-17T09:36:53.358Z,5.50
2017-09-17T09:37:53.373Z,8.30
2017-09-17T09:38:53.396Z,7.70
2017-09-17T09:39:53.421Z,8.90
2017-09-17T09:40:53.444Z,8.50
2017-09-17T09:41:53.462Z,7.80
2017-09-17T09:42:53.482Z,6.60
2017-09-17T09:43:53.540Z,6.00
2017-09-17T09:44:53.524Z,7.80
2017-09-17T09:45:53.545Z,8.90
2017-09-17T09:46:53.568Z,6.60
2017-09-17T09:47:53.596Z,6.80
2017-09-17T09:48:53.617Z,9.40
2017-09-17T09:49:53.657Z,7.50
2017-09-17T09:50:53.665Z,6.80
2017-09-17T09:51:53.682Z,5.90
2017-09-17T09:52:53.713Z,5.90
2017-09-17T09:53:53.754Z,5.30
2017-09-17T09:54:53.754Z,4.50
2017-09-17T09:55:53.771Z,5.20
2017-09-17T09:56:53.796Z,5.50
2017-09-17T09:57:53.816Z,3.80
2017-09-17T09:58:53.846Z,4.50
2017-09-17T09:59:53.865Z,4.20
2017-09-17T10:00:53.890Z,3.70
2017-09-17T10:01:53.907Z,6.10
2017-09-17T10:02:53.941Z,3.80
2017-09-17T10:03:53.960Z,3.80
2017-09-17T10:04:53.977Z,3.10
2017-09-17T10:05:54.003Z,4.20
2017-09-17T10:06:54.031Z,3.80
2017-09-17T10:07:54.041Z,4.80
2017-09-17T10:08:54.066Z,4.70
2017-09-17T10:09:54.094Z,4.60
2017-09-17T10:10:54.114Z,8.20
2017-09-17T10:11:54.134Z,4.70
2017-09-17T10:12:54.158Z,3.70
2017-09-17T10:13:54.185Z,5.90
2017-09-17T10:14:54.215Z,5.90
2017-09-17T10:15:54.220Z,3.30
2017-09-17T10:16:54.248Z,3.90
2017-09-17T10:17:54.273Z,3.20
2017-09-17T10:18:54.297Z,3.80
2017-09-17T10:19:54.312Z,6.10
2017-09-17T10:20:54.335Z,2.90
2017-09-17T10:21:54.377Z,3.00
2017-09-17T10:22:54.385Z,4.80
2017-09-17T10:23:54.405Z,3.30
2017-09-17T10:24:54.422Z,4.30
2017-09-17T10:25:54.446Z,4.70
2017-09-17T10:26:54.471Z,3.90
2017-09-17T10:27:54.504Z,4.90
2017-09-17T10:28:54.517Z,4.10
2017-09-17T10:29:54.537Z,5.30
2017-09-17T10:30:54.557Z,4.80
2017-09-17T10:31:54.582Z,6.30
2017-09-17T10:32:54.608Z,4.10
2017-09-17T10:33:54.629Z,4.00
2017-09-17T10:34:54.648Z,3.30
2017-09-17T10:35:54.685Z,4.00
2017-09-17T10:36:54.698Z,5.80
2017-09-17T10:37:54.715Z,5.40
2017-09-17T10:38:54.738Z,5.60
2017-09-17T10:39:54.762Z,8.00
2017-09-17T10:40:54.790Z,4.40
2017-09-17T10:41:54.817Z,4.60
2017-09-17T10:42:54.830Z,6.00
2017-09-17T10:43:54.857Z,3.80
2017-09-17T10:44:54.877Z,3.50
2017-09-17T10:45:54.904Z,6.00
2017-09-17T10:46:54.920Z,4.30
2017-09-17T10:47:54.946Z,5.60
2017-09-17T10:48:54.976Z,5.30
2017-09-17T10:49:54.992Z,5.00
2017-09-17T10:50:55.021Z,5.10
2017-09-17T10:51:55.034Z,3.20
2017-09-17T10:52:55.052Z,4.60
2017-09-17T10:53:55.072Z,4.70
2017-09-17T10:54:55.098Z,6.20
2017-09-17T10:55:55.124Z,4.10
2017-09-17T10:56:55.150Z,4.70
2017-09-17T10:57:55.164Z,4.10
2017-09-17T10:58:55.189Z,4.90
2017-09-17T10:59:55.209Z,4.50
2017-09-17T11:00:55.231Z,4.00
2017-09-17T11:01:55.252Z,5.20
2017-09-17T11:02:55.277Z,2.70
2017-09-17T11:03:55.304Z,3.40
2017-09-17T11:04:55.327Z,2.80
2017-09-17T11:05:55.353Z,4.20
2017-09-17T11:06:55.367Z,2.90
2017-09-17T11:07:55.390Z,3.60
2017-09-17T11:08:55.414Z,2.70
2017-09-17T11:09:55.438Z,2.90
2017-09-17T11:10:55.462Z,2.60
2017-09-17T11:11:55.476Z,3.20
2017-09-17T11:12:55.507Z,3.20
2017-09-17T11:13:55.534Z,2.70
2017-09-17T11:14:55.556Z,2.90
2017-09-17T11:15:55.570Z,2.70
2017-09-17T11:16:55.591Z,3.50
2017-09-17T11:17:55.613Z,3.20
2017-09-17T11:18:55.639Z,2.20
2017-09-17T11:19:55.659Z,2.50
2017-09-17T11:20:55.682Z,2.80
2017-09-17T11:21:55.705Z,3.50
2017-09-17T11:22:55.728Z,3.20
2017-09-17T11:23:55.748Z,2.90
2017-09-17T11:24:55.775Z,2.20
2017-09-17T11:25:55.795Z,2.10
2017-09-17T11:26:55.817Z,2.00
2017-09-17T11:27:55.854Z,3.10
2017-09-17T11:28:55.863Z,2.80
2017-09-17T11:29:55.891Z,1.70
2017-09-17T11:30:55.911Z,2.30
2017-09-17T11:31:55.934Z,2.70
2017-09-17T11:32:55.953Z,3.40
2017-09-17T11:33:55.980Z,1.30
2017-09-17T11:34:56.005Z,3.10
2017-09-17T11:35:56.026Z,2.20
2017-09-17T11:36:56.045Z,2.00
2017-09-17T11:37:56.080Z,1.80
2017-09-17T11:38:56.095Z,1.30
2017-09-17T11:39:56.134Z,1.30
2017-09-17T11:40:56.162Z,1.70
2017-09-17T11:41:56.169Z,1.10
2017-09-17T11:42:56.189Z,1.10
2017-09-17T11:43:56.211Z,1.30
2017-09-17T11:44:56.235Z,3.70
2017-09-17T11:45:56.263Z,1.80
2017-09-17T11:46:56.287Z,2.20
2017-09-17T11:47:56.308Z,1.40
2017-09-17T11:48:56.328Z,1.40
2017-09-17T11:49:56.358Z,3.30
2017-09-17T11:50:56.373Z,1.80
2017-09-17T11:51:56.395Z,2.30
2017-09-17T11:52:56.427Z,1.30
2017-09-17T11:53:56.447Z,1.60
2017-09-17T11:54:56.471Z,0.80
2017-09-17T11:55:56.498Z,1.30
2017-09-17T11:56:56.513Z,2.60
2017-09-17T11:57:56.539Z,1.60
2017-09-17T11:58:56.569Z,1.30
2017-09-17T11:59:56.586Z,2.30
2017-09-17T12:00:56.608Z,1.30
2017-09-17T12:01:56.634Z,2.80
2017-09-17T12:02:56.657Z,1.10
2017-09-17T12:03:56.671Z,1.60
2017-09-17T12:04:56.695Z,1.70
2017-09-17T12:05:56.716Z,2.00
2017-09-17T12:06:56.742Z,2.00
2017-09-17T12:07:56.763Z,2.00
2017-09-17T12:08:56.789Z,2.20
2017-09-17T12:09:56.820Z,2.40
2017-09-17T12:10:56.827Z,3.40
2017-09-17T12:11:56.861Z,3.60
2017-09-17T12:12:56.889Z,3.40
2017-09-17T12:13:56.974Z,1.70
2017-09-17T12:14:56.922Z,1.50
2017-09-17T12:15:56.951Z,2.50
2017-09-17T12:16:56.961Z,2.50
2017-09-17T12:17:56.993Z,2.20
2017-09-17T12:18:57.008Z,1.90
2017-09-17T12:19:57.035Z,2.50
2017-09-17T12:20:57.060Z,3.90
2017-09-17T12:21:57.086Z,2.20
2017-09-17T12:22:57.108Z,2.20
2017-09-17T12:23:57.120Z,2.10
2017-09-17T12:24:57.154Z,2.50
2017-09-17T12:25:57.186Z,2.80
2017-09-17T12:26:57.192Z,3.40
2017-09-17T12:27:57.214Z,1.60
2017-09-17T12:28:57.243Z,1.40
2017-09-17T12:29:57.260Z,2.20
2017-09-17T12:30:57.282Z,2.30
2017-09-17T12:31:57.307Z,1.30
2017-09-17T12:32:57.323Z,2.30
2017-09-17T12:33:57.344Z,3.80
2017-09-17T12:34:57.373Z,1.70
2017-09-17T12:35:57.394Z,1.30
2017-09-17T12:36:57.416Z,6.20
2017-09-17T12:37:57.433Z,3.00
2017-09-17T12:38:57.462Z,2.40
2017-09-17T12:39:57.487Z,1.60
2017-09-17T12:40:57.517Z,3.60
2017-09-17T12:41:57.530Z,3.20
2017-09-17T12:42:57.548Z,2.00
2017-09-17T12:43:57.578Z,2.00
2017-09-17T12:44:57.598Z,1.20
2017-09-17T12:45:57.619Z,1.80
2017-09-17T12:46:57.645Z,1.20
2017-09-17T12:47:57.659Z,4.40
2017-09-17T12:48:57.698Z,2.80
2017-09-17T12:49:57.724Z,2.80
2017-09-17T12:50:57.750Z,1.10
2017-09-17T12:51:57.752Z,1.00
2017-09-17T12:52:57.780Z,2.10
2017-09-17T12:53:57.818Z,2.90
2017-09-17T12:54:57.821Z,3.20
2017-09-17T12:55:57.848Z,1.30
2017-09-17T12:56:57.865Z,3.70
2017-09-17T12:57:57.888Z,3.00
2017-09-17T12:58:57.909Z,1.20
2017-09-17T12:59:57.935Z,2.20
2017-09-17T13:00:57.966Z,1.20
2017-09-17T13:01:57.983Z,1.50
2017-09-17T13:02:58.005Z,2.90
2017-09-17T13:03:58.027Z,1.50
2017-09-17T13:04:58.044Z,2.20
2017-09-17T13:05:58.066Z,2.70
2017-09-17T13:06:58.093Z,1.80
2017-09-17T13:07:58.118Z,1.60
2017-09-17T13:08:58.137Z,1.70